sensor_id;sensor_type;location;lat;lon;timestamp;P1;durP1;ratioP1;P2;durP2;ratioP2
2674;SDS011;1347;42.122;24.746;2023-07-28T00:02:01;9.67;;;5.10;;
2674;SDS011;1347;42.122;24.746;2023-07-28T00:04:30;5.43;;;4.93;;
2674;SDS011;1347;42.122;24.746;2023-07-28T00:06:57;6.27;;;5.00;;
2674;SDS011;1347;42.122;24.746;2023-07-28T00:09:23;4.53;;;4.20;;
2674;SDS011;1347;42.122;24.746;2023-07-28T00:11:50;5.43;;;5.03;;
2674;SDS011;1347;42.122;24.746;2023-07-28T00:14:17;4.70;;;4.40;;
2674;SDS011;1347;42.122;24.746;2023-07-28T00:16:44;5.57;;;5.07;;
2674;SDS011;1347;42.122;24.746;2023-07-28T00:19:11;5.33;;;4.83;;
2674;SDS011;1347;42.122;24.746;2023-07-28T00:21:39;4.60;;;4.20;;
2674;SDS011;1347;42.122;24.746;2023-07-28T00:24:06;5.60;;;5.20;;
2674;SDS011;1347;42.122;24.746;2023-07-28T00:26:33;5.60;;;5.10;;
2674;SDS011;1347;42.122;24.746;2023-07-28T00:29:00;5.90;;;5.30;;
2674;SDS011;1347;42.122;24.746;2023-07-28T00:31:30;5.30;;;4.80;;
2674;SDS011;1347;42.122;24.746;2023-07-28T00:33:57;5.40;;;4.87;;
2674;SDS011;1347;42.122;24.746;2023-07-28T00:36:23;5.03;;;4.53;;
2674;SDS011;1347;42.122;24.746;2023-07-28T00:38:52;4.67;;;4.27;;
2674;SDS011;1347;42.122;24.746;2023-07-28T00:41:18;5.60;;;5.10;;
2674;SDS011;1347;42.122;24.746;2023-07-28T00:43:45;4.90;;;4.50;;
2674;SDS011;1347;42.122;24.746;2023-07-28T00:46:12;6.10;;;5.00;;
2674;SDS011;1347;42.122;24.746;2023-07-28T00:48:40;10.37;;;4.67;;
2674;SDS011;1347;42.122;24.746;2023-07-28T00:51:07;6.20;;;5.70;;
2674;SDS011;1347;42.122;24.746;2023-07-28T00:53:35;5.37;;;4.97;;
2674;SDS011;1347;42.122;24.746;2023-07-28T00:56:04;5.63;;;5.20;;
2674;SDS011;1347;42.122;24.746;2023-07-28T00:58:32;5.30;;;4.80;;
2674;SDS011;1347;42.122;24.746;2023-07-28T01:00:59;5.23;;;4.73;;
2674;SDS011;1347;42.122;24.746;2023-07-28T01:03:26;5.83;;;5.33;;
2674;SDS011;1347;42.122;24.746;2023-07-28T01:05:55;6.33;;;5.70;;
2674;SDS011;1347;42.122;24.746;2023-07-28T01:08:34;5.60;;;5.10;;
2674;SDS011;1347;42.122;24.746;2023-07-28T01:11:08;5.40;;;5.03;;
2674;SDS011;1347;42.122;24.746;2023-07-28T01:13:35;5.37;;;4.87;;
2674;SDS011;1347;42.122;24.746;2023-07-28T01:16:02;5.93;;;5.43;;
2674;SDS011;1347;42.122;24.746;2023-07-28T01:18:29;5.97;;;5.40;;
2674;SDS011;1347;42.122;24.746;2023-07-28T01:20:56;7.33;;;5.27;;
2674;SDS011;1347;42.122;24.746;2023-07-28T01:23:29;6.03;;;5.43;;
2674;SDS011;1347;42.122;24.746;2023-07-28T01:26:05;5.97;;;5.40;;
2674;SDS011;1347;42.122;24.746;2023-07-28T01:28:35;6.70;;;5.70;;
2674;SDS011;1347;42.122;24.746;2023-07-28T01:31:04;5.70;;;5.30;;
2674;SDS011;1347;42.122;24.746;2023-07-28T01:33:32;5.73;;;5.23;;
2674;SDS011;1347;42.122;24.746;2023-07-28T01:36:00;5.97;;;5.30;;
2674;SDS011;1347;42.122;24.746;2023-07-28T01:38:27;5.50;;;5.10;;
2674;SDS011;1347;42.122;24.746;2023-07-28T01:40:54;5.30;;;4.90;;
2674;SDS011;1347;42.122;24.746;2023-07-28T01:43:21;6.03;;;5.53;;
2674;SDS011;1347;42.122;24.746;2023-07-28T01:45:49;5.27;;;4.87;;
2674;SDS011;1347;42.122;24.746;2023-07-28T01:48:16;5.60;;;4.87;;
2674;SDS011;1347;42.122;24.746;2023-07-28T01:50:43;5.80;;;5.17;;
2674;SDS011;1347;42.122;24.746;2023-07-28T01:53:10;6.37;;;5.30;;
2674;SDS011;1347;42.122;24.746;2023-07-28T01:55:37;6.20;;;4.97;;
2674;SDS011;1347;42.122;24.746;2023-07-28T01:58:04;6.13;;;5.70;;
2674;SDS011;1347;42.122;24.746;2023-07-28T02:00:31;6.47;;;5.87;;
2674;SDS011;1347;42.122;24.746;2023-07-28T02:02:59;6.67;;;5.97;;
2674;SDS011;1347;42.122;24.746;2023-07-28T02:05:27;5.83;;;5.33;;
2674;SDS011;1347;42.122;24.746;2023-07-28T02:07:54;6.50;;;6.00;;
2674;SDS011;1347;42.122;24.746;2023-07-28T02:10:21;7.23;;;5.97;;
2674;SDS011;1347;42.122;24.746;2023-07-28T02:12:49;6.53;;;5.93;;
2674;SDS011;1347;42.122;24.746;2023-07-28T02:15:16;6.37;;;5.83;;
2674;SDS011;1347;42.122;24.746;2023-07-28T02:17:43;6.80;;;6.10;;
2674;SDS011;1347;42.122;24.746;2023-07-28T02:20:11;7.60;;;5.70;;
2674;SDS011;1347;42.122;24.746;2023-07-28T02:22:40;7.30;;;6.60;;
2674;SDS011;1347;42.122;24.746;2023-07-28T02:25:07;6.70;;;6.20;;
2674;SDS011;1347;42.122;24.746;2023-07-28T02:27:35;6.03;;;5.53;;
2674;SDS011;1347;42.122;24.746;2023-07-28T02:30:02;6.27;;;5.77;;
2674;SDS011;1347;42.122;24.746;2023-07-28T02:32:30;6.30;;;5.80;;
2674;SDS011;1347;42.122;24.746;2023-07-28T02:34:56;5.77;;;5.37;;
2674;SDS011;1347;42.122;24.746;2023-07-28T02:37:25;6.80;;;6.30;;
2674;SDS011;1347;42.122;24.746;2023-07-28T02:39:52;6.17;;;5.73;;
2674;SDS011;1347;42.122;24.746;2023-07-28T02:42:19;8.17;;;5.90;;
2674;SDS011;1347;42.122;24.746;2023-07-28T02:44:45;6.50;;;6.00;;
2674;SDS011;1347;42.122;24.746;2023-07-28T02:47:12;5.80;;;5.30;;
2674;SDS011;1347;42.122;24.746;2023-07-28T02:49:40;6.30;;;5.80;;
2674;SDS011;1347;42.122;24.746;2023-07-28T02:52:08;6.83;;;6.33;;
2674;SDS011;1347;42.122;24.746;2023-07-28T02:54:37;7.80;;;7.20;;
2674;SDS011;1347;42.122;24.746;2023-07-28T02:57:04;6.60;;;6.00;;
2674;SDS011;1347;42.122;24.746;2023-07-28T02:59:31;6.27;;;5.67;;
2674;SDS011;1347;42.122;24.746;2023-07-28T03:01:58;7.20;;;6.60;;
2674;SDS011;1347;42.122;24.746;2023-07-28T03:04:25;8.07;;;6.23;;
2674;SDS011;1347;42.122;24.746;2023-07-28T03:06:52;6.00;;;5.50;;
2674;SDS011;1347;42.122;24.746;2023-07-28T03:09:19;6.60;;;5.90;;
2674;SDS011;1347;42.122;24.746;2023-07-28T03:11:47;8.00;;;7.30;;
2674;SDS011;1347;42.122;24.746;2023-07-28T03:14:14;10.37;;;9.47;;
2674;SDS011;1347;42.122;24.746;2023-07-28T03:16:41;7.50;;;6.90;;
2674;SDS011;1347;42.122;24.746;2023-07-28T03:19:08;7.20;;;6.70;;
2674;SDS011;1347;42.122;24.746;2023-07-28T03:21:35;7.33;;;6.50;;
2674;SDS011;1347;42.122;24.746;2023-07-28T03:24:02;6.73;;;6.20;;
2674;SDS011;1347;42.122;24.746;2023-07-28T03:26:29;9.33;;;7.03;;
2674;SDS011;1347;42.122;24.746;2023-07-28T03:28:58;7.27;;;6.67;;
2674;SDS011;1347;42.122;24.746;2023-07-28T03:31:24;7.30;;;6.60;;
2674;SDS011;1347;42.122;24.746;2023-07-28T03:33:51;7.33;;;6.77;;
2674;SDS011;1347;42.122;24.746;2023-07-28T03:36:18;7.90;;;7.20;;
2674;SDS011;1347;42.122;24.746;2023-07-28T03:38:45;7.90;;;7.20;;
2674;SDS011;1347;42.122;24.746;2023-07-28T03:41:12;12.40;;;7.33;;
2674;SDS011;1347;42.122;24.746;2023-07-28T03:43:39;12.00;;;6.70;;
2674;SDS011;1347;42.122;24.746;2023-07-28T03:46:09;7.53;;;6.83;;
2674;SDS011;1347;42.122;24.746;2023-07-28T03:48:35;7.87;;;6.60;;
2674;SDS011;1347;42.122;24.746;2023-07-28T03:51:02;8.40;;;7.70;;
2674;SDS011;1347;42.122;24.746;2023-07-28T03:53:29;9.23;;;7.63;;
2674;SDS011;1347;42.122;24.746;2023-07-28T03:55:56;7.83;;;7.23;;
2674;SDS011;1347;42.122;24.746;2023-07-28T03:58:23;9.10;;;7.73;;
2674;SDS011;1347;42.122;24.746;2023-07-28T04:00:51;8.60;;;7.27;;
2674;SDS011;1347;42.122;24.746;2023-07-28T04:03:20;12.67;;;7.30;;
2674;SDS011;1347;42.122;24.746;2023-07-28T04:05:47;13.33;;;7.73;;
2674;SDS011;1347;42.122;24.746;2023-07-28T04:08:14;8.90;;;8.20;;
2674;SDS011;1347;42.122;24.746;2023-07-28T04:10:41;8.37;;;7.57;;
2674;SDS011;1347;42.122;24.746;2023-07-28T04:13:08;7.63;;;6.93;;
2674;SDS011;1347;42.122;24.746;2023-07-28T04:15:35;8.20;;;7.40;;
2674;SDS011;1347;42.122;24.746;2023-07-28T04:18:02;7.20;;;6.50;;
2674;SDS011;1347;42.122;24.746;2023-07-28T04:20:30;9.53;;;6.70;;
2674;SDS011;1347;42.122;24.746;2023-07-28T04:22:57;7.77;;;6.30;;
2674;SDS011;1347;42.122;24.746;2023-07-28T04:25:24;8.63;;;7.50;;
2674;SDS011;1347;42.122;24.746;2023-07-28T04:27:51;7.70;;;6.77;;
2674;SDS011;1347;42.122;24.746;2023-07-28T04:30:18;8.20;;;7.23;;
2674;SDS011;1347;42.122;24.746;2023-07-28T04:32:45;8.13;;;6.00;;
2674;SDS011;1347;42.122;24.746;2023-07-28T04:35:12;10.50;;;6.60;;
2674;SDS011;1347;42.122;24.746;2023-07-28T04:37:40;12.73;;;6.47;;
2674;SDS011;1347;42.122;24.746;2023-07-28T04:40:07;6.63;;;6.03;;
2674;SDS011;1347;42.122;24.746;2023-07-28T04:42:35;7.70;;;6.90;;
2674;SDS011;1347;42.122;24.746;2023-07-28T04:45:02;8.03;;;6.30;;
2674;SDS011;1347;42.122;24.746;2023-07-28T04:47:30;9.37;;;6.57;;
2674;SDS011;1347;42.122;24.746;2023-07-28T04:49:57;11.20;;;8.03;;
2674;SDS011;1347;42.122;24.746;2023-07-28T04:52:24;8.87;;;7.70;;
2674;SDS011;1347;42.122;24.746;2023-07-28T04:54:52;11.10;;;9.87;;
2674;SDS011;1347;42.122;24.746;2023-07-28T04:57:19;12.03;;;10.03;;
2674;SDS011;1347;42.122;24.746;2023-07-28T04:59:46;11.10;;;10.00;;
2674;SDS011;1347;42.122;24.746;2023-07-28T05:02:13;11.20;;;10.20;;
2674;SDS011;1347;42.122;24.746;2023-07-28T05:04:40;11.53;;;10.43;;
2674;SDS011;1347;42.122;24.746;2023-07-28T05:07:07;12.00;;;10.60;;
2674;SDS011;1347;42.122;24.746;2023-07-28T05:09:34;13.50;;;10.40;;
2674;SDS011;1347;42.122;24.746;2023-07-28T05:12:02;10.83;;;9.83;;
2674;SDS011;1347;42.122;24.746;2023-07-28T05:14:29;11.47;;;10.27;;
2674;SDS011;1347;42.122;24.746;2023-07-28T05:16:56;10.57;;;9.57;;
2674;SDS011;1347;42.122;24.746;2023-07-28T05:19:23;10.60;;;9.50;;
2674;SDS011;1347;42.122;24.746;2023-07-28T05:21:50;13.93;;;9.50;;
2674;SDS011;1347;42.122;24.746;2023-07-28T05:24:17;12.70;;;9.63;;
2674;SDS011;1347;42.122;24.746;2023-07-28T05:26:44;12.53;;;9.23;;
2674;SDS011;1347;42.122;24.746;2023-07-28T05:29:12;17.03;;;10.77;;
2674;SDS011;1347;42.122;24.746;2023-07-28T05:31:39;11.33;;;9.87;;
2674;SDS011;1347;42.122;24.746;2023-07-28T05:34:06;11.67;;;9.60;;
2674;SDS011;1347;42.122;24.746;2023-07-28T05:36:33;14.57;;;10.37;;
2674;SDS011;1347;42.122;24.746;2023-07-28T05:39:00;11.87;;;10.23;;
2674;SDS011;1347;42.122;24.746;2023-07-28T05:41:27;19.63;;;10.80;;
2674;SDS011;1347;42.122;24.746;2023-07-28T05:43:54;10.53;;;9.43;;
2674;SDS011;1347;42.122;24.746;2023-07-28T05:46:22;11.80;;;9.13;;
2674;SDS011;1347;42.122;24.746;2023-07-28T05:48:49;9.93;;;9.03;;
2674;SDS011;1347;42.122;24.746;2023-07-28T05:51:16;9.60;;;8.63;;
2674;SDS011;1347;42.122;24.746;2023-07-28T05:53:43;14.43;;;9.57;;
2674;SDS011;1347;42.122;24.746;2023-07-28T05:56:10;10.87;;;9.77;;
2674;SDS011;1347;42.122;24.746;2023-07-28T05:58:37;12.47;;;9.47;;
2674;SDS011;1347;42.122;24.746;2023-07-28T06:01:03;9.47;;;8.53;;
2674;SDS011;1347;42.122;24.746;2023-07-28T06:03:32;9.40;;;8.40;;
2674;SDS011;1347;42.122;24.746;2023-07-28T06:05:59;11.33;;;7.47;;
2674;SDS011;1347;42.122;24.746;2023-07-28T06:08:25;12.60;;;9.80;;
2674;SDS011;1347;42.122;24.746;2023-07-28T06:10:52;14.20;;;11.77;;
2674;SDS011;1347;42.122;24.746;2023-07-28T06:13:19;9.70;;;8.67;;
2674;SDS011;1347;42.122;24.746;2023-07-28T06:15:46;19.33;;;12.77;;
2674;SDS011;1347;42.122;24.746;2023-07-28T06:18:13;11.10;;;7.70;;
2674;SDS011;1347;42.122;24.746;2023-07-28T06:20:43;10.70;;;8.30;;
2674;SDS011;1347;42.122;24.746;2023-07-28T06:23:10;11.27;;;8.30;;
2674;SDS011;1347;42.122;24.746;2023-07-28T06:25:37;10.20;;;9.20;;
2674;SDS011;1347;42.122;24.746;2023-07-28T06:28:08;17.53;;;8.10;;
2674;SDS011;1347;42.122;24.746;2023-07-28T06:30:35;16.87;;;8.30;;
2674;SDS011;1347;42.122;24.746;2023-07-28T06:33:02;12.03;;;9.03;;
2674;SDS011;1347;42.122;24.746;2023-07-28T06:35:30;12.50;;;10.00;;
2674;SDS011;1347;42.122;24.746;2023-07-28T06:40:28;17.03;;;9.90;;
2674;SDS011;1347;42.122;24.746;2023-07-28T06:42:55;11.10;;;9.67;;
2674;SDS011;1347;42.122;24.746;2023-07-28T06:45:22;11.10;;;7.57;;
2674;SDS011;1347;42.122;24.746;2023-07-28T06:47:49;12.33;;;8.67;;
2674;SDS011;1347;42.122;24.746;2023-07-28T06:50:16;10.60;;;7.53;;
2674;SDS011;1347;42.122;24.746;2023-07-28T06:52:43;12.07;;;8.07;;
2674;SDS011;1347;42.122;24.746;2023-07-28T06:55:12;8.30;;;7.57;;
2674;SDS011;1347;42.122;24.746;2023-07-28T06:57:38;9.03;;;7.90;;
2674;SDS011;1347;42.122;24.746;2023-07-28T07:00:06;12.07;;;7.60;;
2674;SDS011;1347;42.122;24.746;2023-07-28T07:02:34;7.90;;;7.20;;
2674;SDS011;1347;42.122;24.746;2023-07-28T07:05:01;8.83;;;7.60;;
2674;SDS011;1347;42.122;24.746;2023-07-28T07:07:28;10.43;;;7.90;;
2674;SDS011;1347;42.122;24.746;2023-07-28T07:09:55;8.83;;;7.60;;
2674;SDS011;1347;42.122;24.746;2023-07-28T07:12:23;14.60;;;8.27;;
2674;SDS011;1347;42.122;24.746;2023-07-28T07:14:50;8.90;;;7.23;;
2674;SDS011;1347;42.122;24.746;2023-07-28T07:17:17;9.17;;;7.73;;
2674;SDS011;1347;42.122;24.746;2023-07-28T07:19:44;14.40;;;7.30;;
2674;SDS011;1347;42.122;24.746;2023-07-28T07:22:11;7.90;;;7.10;;
2674;SDS011;1347;42.122;24.746;2023-07-28T07:24:38;12.40;;;7.70;;
2674;SDS011;1347;42.122;24.746;2023-07-28T07:27:05;10.70;;;6.33;;
2674;SDS011;1347;42.122;24.746;2023-07-28T07:29:37;9.07;;;7.40;;
2674;SDS011;1347;42.122;24.746;2023-07-28T07:32:04;12.10;;;6.33;;
2674;SDS011;1347;42.122;24.746;2023-07-28T07:34:32;6.97;;;6.20;;
2674;SDS011;1347;42.122;24.746;2023-07-28T07:37:02;12.37;;;7.23;;
2674;SDS011;1347;42.122;24.746;2023-07-28T07:39:29;6.37;;;5.77;;
2674;SDS011;1347;42.122;24.746;2023-07-28T07:41:56;16.60;;;7.20;;
2674;SDS011;1347;42.122;24.746;2023-07-28T07:44:23;9.10;;;5.63;;
2674;SDS011;1347;42.122;24.746;2023-07-28T07:46:51;6.00;;;5.43;;
2674;SDS011;1347;42.122;24.746;2023-07-28T07:49:18;11.37;;;5.17;;
2674;SDS011;1347;42.122;24.746;2023-07-28T07:51:45;5.33;;;4.40;;
2674;SDS011;1347;42.122;24.746;2023-07-28T07:54:12;6.13;;;5.03;;
2674;SDS011;1347;42.122;24.746;2023-07-28T07:56:42;7.07;;;5.00;;
2674;SDS011;1347;42.122;24.746;2023-07-28T07:59:09;5.93;;;4.53;;
2674;SDS011;1347;42.122;24.746;2023-07-28T08:01:36;7.70;;;5.03;;
2674;SDS011;1347;42.122;24.746;2023-07-28T08:04:04;6.40;;;4.13;;
2674;SDS011;1347;42.122;24.746;2023-07-28T08:06:31;9.10;;;5.00;;
2674;SDS011;1347;42.122;24.746;2023-07-28T08:08:58;7.60;;;4.97;;
2674;SDS011;1347;42.122;24.746;2023-07-28T08:11:25;10.07;;;5.47;;
2674;SDS011;1347;42.122;24.746;2023-07-28T08:13:52;9.67;;;5.90;;
2674;SDS011;1347;42.122;24.746;2023-07-28T08:16:18;6.10;;;5.60;;
2674;SDS011;1347;42.122;24.746;2023-07-28T08:18:45;9.03;;;7.70;;
2674;SDS011;1347;42.122;24.746;2023-07-28T08:21:13;8.70;;;5.93;;
2674;SDS011;1347;42.122;24.746;2023-07-28T08:23:40;10.53;;;6.30;;
2674;SDS011;1347;42.122;24.746;2023-07-28T08:26:07;9.63;;;5.43;;
2674;SDS011;1347;42.122;24.746;2023-07-28T08:28:34;6.10;;;5.30;;
2674;SDS011;1347;42.122;24.746;2023-07-28T08:31:01;10.33;;;9.23;;
2674;SDS011;1347;42.122;24.746;2023-07-28T08:33:29;9.20;;;6.13;;
2674;SDS011;1347;42.122;24.746;2023-07-28T08:35:56;11.40;;;7.33;;
2674;SDS011;1347;42.122;24.746;2023-07-28T08:38:24;9.70;;;5.23;;
2674;SDS011;1347;42.122;24.746;2023-07-28T08:40:51;10.40;;;6.63;;
2674;SDS011;1347;42.122;24.746;2023-07-28T08:43:19;10.43;;;5.90;;
2674;SDS011;1347;42.122;24.746;2023-07-28T08:45:46;11.23;;;6.23;;
2674;SDS011;1347;42.122;24.746;2023-07-28T08:48:12;10.67;;;5.53;;
2674;SDS011;1347;42.122;24.746;2023-07-28T08:50:40;4.93;;;4.40;;
2674;SDS011;1347;42.122;24.746;2023-07-28T08:53:06;5.40;;;5.00;;
2674;SDS011;1347;42.122;24.746;2023-07-28T08:55:35;6.70;;;5.37;;
2674;SDS011;1347;42.122;24.746;2023-07-28T09:00:44;7.07;;;4.27;;
2674;SDS011;1347;42.122;24.746;2023-07-28T09:03:14;6.27;;;4.07;;
2674;SDS011;1347;42.122;24.746;2023-07-28T09:05:42;6.10;;;5.20;;
2674;SDS011;1347;42.122;24.746;2023-07-28T09:08:09;9.10;;;4.50;;
2674;SDS011;1347;42.122;24.746;2023-07-28T09:10:44;7.40;;;5.90;;
2674;SDS011;1347;42.122;24.746;2023-07-28T09:13:14;10.53;;;4.53;;
2674;SDS011;1347;42.122;24.746;2023-07-28T09:15:42;7.13;;;5.27;;
2674;SDS011;1347;42.122;24.746;2023-07-28T09:18:09;6.53;;;4.43;;
2674;SDS011;1347;42.122;24.746;2023-07-28T09:20:38;5.87;;;3.70;;
2674;SDS011;1347;42.122;24.746;2023-07-28T09:23:06;9.07;;;4.97;;
2674;SDS011;1347;42.122;24.746;2023-07-28T09:25:34;4.93;;;4.10;;
2674;SDS011;1347;42.122;24.746;2023-07-28T09:28:03;9.00;;;4.03;;
2674;SDS011;1347;42.122;24.746;2023-07-28T09:30:42;3.83;;;3.43;;
2674;SDS011;1347;42.122;24.746;2023-07-28T09:33:11;2.97;;;2.77;;
2674;SDS011;1347;42.122;24.746;2023-07-28T09:35:46;3.00;;;2.80;;
2674;SDS011;1347;42.122;24.746;2023-07-28T09:38:14;3.47;;;3.17;;
2674;SDS011;1347;42.122;24.746;2023-07-28T09:40:42;8.50;;;3.20;;
2674;SDS011;1347;42.122;24.746;2023-07-28T09:43:11;3.57;;;3.27;;
2674;SDS011;1347;42.122;24.746;2023-07-28T09:45:38;3.40;;;3.10;;
2674;SDS011;1347;42.122;24.746;2023-07-28T09:48:06;6.03;;;2.90;;
2674;SDS011;1347;42.122;24.746;2023-07-28T09:50:36;3.73;;;3.43;;
2674;SDS011;1347;42.122;24.746;2023-07-28T09:53:04;3.50;;;3.23;;
2674;SDS011;1347;42.122;24.746;2023-07-28T09:55:35;7.33;;;5.97;;
2674;SDS011;1347;42.122;24.746;2023-07-28T09:58:05;3.80;;;3.50;;
2674;SDS011;1347;42.122;24.746;2023-07-28T10:00:36;3.17;;;2.87;;
2674;SDS011;1347;42.122;24.746;2023-07-28T10:03:03;2.90;;;2.70;;
2674;SDS011;1347;42.122;24.746;2023-07-28T10:05:30;3.40;;;3.20;;
2674;SDS011;1347;42.122;24.746;2023-07-28T10:07:59;3.97;;;3.27;;
2674;SDS011;1347;42.122;24.746;2023-07-28T10:10:28;3.43;;;3.13;;
2674;SDS011;1347;42.122;24.746;2023-07-28T10:12:57;3.53;;;3.30;;
2674;SDS011;1347;42.122;24.746;2023-07-28T10:15:27;3.17;;;2.97;;
2674;SDS011;1347;42.122;24.746;2023-07-28T10:17:57;3.10;;;2.90;;
2674;SDS011;1347;42.122;24.746;2023-07-28T10:20:29;3.73;;;3.43;;
2674;SDS011;1347;42.122;24.746;2023-07-28T10:23:06;3.20;;;3.00;;
2674;SDS011;1347;42.122;24.746;2023-07-28T10:25:37;3.60;;;3.37;;
2674;SDS011;1347;42.122;24.746;2023-07-28T10:28:06;3.53;;;3.27;;
2674;SDS011;1347;42.122;24.746;2023-07-28T10:30:34;3.70;;;3.23;;
2674;SDS011;1347;42.122;24.746;2023-07-28T10:33:04;3.50;;;2.77;;
2674;SDS011;1347;42.122;24.746;2023-07-28T10:35:32;3.70;;;3.40;;
2674;SDS011;1347;42.122;24.746;2023-07-28T10:41:07;3.90;;;3.60;;
2674;SDS011;1347;42.122;24.746;2023-07-28T10:43:35;4.50;;;3.90;;
2674;SDS011;1347;42.122;24.746;2023-07-28T10:46:04;3.40;;;3.10;;
2674;SDS011;1347;42.122;24.746;2023-07-28T10:48:33;4.50;;;3.40;;
2674;SDS011;1347;42.122;24.746;2023-07-28T10:51:01;4.03;;;3.13;;
2674;SDS011;1347;42.122;24.746;2023-07-28T10:53:28;4.03;;;3.40;;
2674;SDS011;1347;42.122;24.746;2023-07-28T10:55:55;6.23;;;4.07;;
2674;SDS011;1347;42.122;24.746;2023-07-28T10:58:21;4.80;;;3.67;;
2674;SDS011;1347;42.122;24.746;2023-07-28T11:00:50;4.23;;;3.83;;
2674;SDS011;1347;42.122;24.746;2023-07-28T11:03:17;4.33;;;3.90;;
2674;SDS011;1347;42.122;24.746;2023-07-28T11:05:47;3.80;;;3.50;;
2674;SDS011;1347;42.122;24.746;2023-07-28T11:08:15;4.13;;;3.83;;
2674;SDS011;1347;42.122;24.746;2023-07-28T11:10:43;4.37;;;3.43;;
2674;SDS011;1347;42.122;24.746;2023-07-28T11:13:10;3.83;;;3.43;;
2674;SDS011;1347;42.122;24.746;2023-07-28T11:15:36;3.27;;;3.07;;
2674;SDS011;1347;42.122;24.746;2023-07-28T11:18:03;4.20;;;3.90;;
2674;SDS011;1347;42.122;24.746;2023-07-28T11:20:32;3.70;;;3.40;;
2674;SDS011;1347;42.122;24.746;2023-07-28T11:23:01;3.50;;;3.30;;
2674;SDS011;1347;42.122;24.746;2023-07-28T11:25:29;3.97;;;3.60;;
2674;SDS011;1347;42.122;24.746;2023-07-28T11:27:57;4.27;;;3.87;;
2674;SDS011;1347;42.122;24.746;2023-07-28T11:30:31;4.27;;;3.70;;
2674;SDS011;1347;42.122;24.746;2023-07-28T11:32:58;3.93;;;3.63;;
2674;SDS011;1347;42.122;24.746;2023-07-28T11:35:25;3.73;;;3.43;;
2674;SDS011;1347;42.122;24.746;2023-07-28T11:37:53;3.70;;;3.40;;
2674;SDS011;1347;42.122;24.746;2023-07-28T11:40:22;4.70;;;3.33;;
2674;SDS011;1347;42.122;24.746;2023-07-28T11:42:51;3.43;;;3.13;;
2674;SDS011;1347;42.122;24.746;2023-07-28T11:45:19;3.33;;;3.07;;
2674;SDS011;1347;42.122;24.746;2023-07-28T11:47:57;5.27;;;3.30;;
2674;SDS011;1347;42.122;24.746;2023-07-28T11:50:25;3.40;;;3.10;;
2674;SDS011;1347;42.122;24.746;2023-07-28T11:52:53;3.37;;;2.97;;
2674;SDS011;1347;42.122;24.746;2023-07-28T11:55:22;3.63;;;2.80;;
2674;SDS011;1347;42.122;24.746;2023-07-28T11:57:50;3.13;;;2.83;;
2674;SDS011;1347;42.122;24.746;2023-07-28T12:00:18;3.80;;;3.37;;
2674;SDS011;1347;42.122;24.746;2023-07-28T12:03:00;3.33;;;3.03;;
2674;SDS011;1347;42.122;24.746;2023-07-28T12:05:28;3.80;;;3.50;;
2674;SDS011;1347;42.122;24.746;2023-07-28T12:07:57;3.80;;;3.50;;
2674;SDS011;1347;42.122;24.746;2023-07-28T12:10:25;2.90;;;2.57;;
2674;SDS011;1347;42.122;24.746;2023-07-28T12:12:53;4.57;;;3.50;;
2674;SDS011;1347;42.122;24.746;2023-07-28T12:15:20;3.57;;;3.20;;
2674;SDS011;1347;42.122;24.746;2023-07-28T12:18:05;3.13;;;2.93;;
2674;SDS011;1347;42.122;24.746;2023-07-28T12:20:35;3.00;;;2.80;;
2674;SDS011;1347;42.122;24.746;2023-07-28T12:23:03;3.47;;;3.20;;
2674;SDS011;1347;42.122;24.746;2023-07-28T12:25:32;3.37;;;3.07;;
2674;SDS011;1347;42.122;24.746;2023-07-28T12:28:01;3.90;;;3.53;;
2674;SDS011;1347;42.122;24.746;2023-07-28T12:30:29;4.27;;;3.90;;
2674;SDS011;1347;42.122;24.746;2023-07-28T12:32:57;5.57;;;4.10;;
2674;SDS011;1347;42.122;24.746;2023-07-28T12:35:24;8.33;;;3.90;;
2674;SDS011;1347;42.122;24.746;2023-07-28T12:37:55;4.00;;;3.70;;
2674;SDS011;1347;42.122;24.746;2023-07-28T12:40:25;3.80;;;3.50;;
2674;SDS011;1347;42.122;24.746;2023-07-28T12:42:54;3.53;;;3.30;;
2674;SDS011;1347;42.122;24.746;2023-07-28T12:45:21;4.77;;;4.20;;
2674;SDS011;1347;42.122;24.746;2023-07-28T12:47:51;3.70;;;3.40;;
2674;SDS011;1347;42.122;24.746;2023-07-28T12:50:18;4.37;;;3.57;;
2674;SDS011;1347;42.122;24.746;2023-07-28T12:52:45;3.90;;;3.60;;
2674;SDS011;1347;42.122;24.746;2023-07-28T12:55:12;4.20;;;3.93;;
2674;SDS011;1347;42.122;24.746;2023-07-28T12:57:39;3.93;;;3.63;;
2674;SDS011;1347;42.122;24.746;2023-07-28T13:00:08;3.70;;;3.50;;
2674;SDS011;1347;42.122;24.746;2023-07-28T13:02:39;3.57;;;3.37;;
2674;SDS011;1347;42.122;24.746;2023-07-28T13:05:07;3.70;;;3.50;;
2674;SDS011;1347;42.122;24.746;2023-07-28T13:07:35;3.73;;;3.53;;
2674;SDS011;1347;42.122;24.746;2023-07-28T13:10:03;4.30;;;3.90;;
2674;SDS011;1347;42.122;24.746;2023-07-28T13:12:32;3.90;;;3.70;;
2674;SDS011;1347;42.122;24.746;2023-07-28T13:14:59;4.27;;;3.93;;
2674;SDS011;1347;42.122;24.746;2023-07-28T13:17:27;7.93;;;4.47;;
2674;SDS011;1347;42.122;24.746;2023-07-28T13:19:54;4.10;;;3.90;;
2674;SDS011;1347;42.122;24.746;2023-07-28T13:22:22;4.70;;;4.40;;
2674;SDS011;1347;42.122;24.746;2023-07-28T13:24:49;4.00;;;3.70;;
2674;SDS011;1347;42.122;24.746;2023-07-28T13:27:16;4.47;;;4.17;;
2674;SDS011;1347;42.122;24.746;2023-07-28T13:29:43;3.83;;;3.53;;
2674;SDS011;1347;42.122;24.746;2023-07-28T13:32:16;3.47;;;3.20;;
2674;SDS011;1347;42.122;24.746;2023-07-28T13:34:46;3.70;;;3.50;;
2674;SDS011;1347;42.122;24.746;2023-07-28T13:37:12;4.13;;;3.77;;
2674;SDS011;1347;42.122;24.746;2023-07-28T13:39:39;3.50;;;3.20;;
2674;SDS011;1347;42.122;24.746;2023-07-28T13:42:07;4.37;;;3.20;;
2674;SDS011;1347;42.122;24.746;2023-07-28T13:44:34;5.73;;;4.30;;
2674;SDS011;1347;42.122;24.746;2023-07-28T13:47:01;5.37;;;3.67;;
2674;SDS011;1347;42.122;24.746;2023-07-28T13:49:28;5.67;;;5.27;;
2674;SDS011;1347;42.122;24.746;2023-07-28T13:51:56;4.47;;;3.77;;
2674;SDS011;1347;42.122;24.746;2023-07-28T13:54:23;5.20;;;3.90;;
2674;SDS011;1347;42.122;24.746;2023-07-28T13:56:50;3.97;;;3.63;;
2674;SDS011;1347;42.122;24.746;2023-07-28T13:59:17;4.60;;;4.30;;
2674;SDS011;1347;42.122;24.746;2023-07-28T14:01:44;4.80;;;4.23;;
2674;SDS011;1347;42.122;24.746;2023-07-28T14:04:10;7.33;;;4.77;;
2674;SDS011;1347;42.122;24.746;2023-07-28T14:06:39;4.07;;;3.77;;
2674;SDS011;1347;42.122;24.746;2023-07-28T14:09:07;4.27;;;3.90;;
2674;SDS011;1347;42.122;24.746;2023-07-28T14:11:34;4.70;;;4.20;;
2674;SDS011;1347;42.122;24.746;2023-07-28T14:14:01;6.03;;;3.97;;
2674;SDS011;1347;42.122;24.746;2023-07-28T14:16:28;4.17;;;3.87;;
2674;SDS011;1347;42.122;24.746;2023-07-28T14:18:55;5.07;;;4.40;;
2674;SDS011;1347;42.122;24.746;2023-07-28T14:21:22;4.83;;;4.37;;
2674;SDS011;1347;42.122;24.746;2023-07-28T14:23:49;4.87;;;4.37;;
2674;SDS011;1347;42.122;24.746;2023-07-28T14:26:17;6.33;;;5.20;;
2674;SDS011;1347;42.122;24.746;2023-07-28T14:28:44;5.73;;;5.20;;
2674;SDS011;1347;42.122;24.746;2023-07-28T14:31:11;4.23;;;3.90;;
2674;SDS011;1347;42.122;24.746;2023-07-28T14:33:38;8.40;;;4.70;;
2674;SDS011;1347;42.122;24.746;2023-07-28T14:36:04;5.07;;;4.53;;
2674;SDS011;1347;42.122;24.746;2023-07-28T14:38:31;6.77;;;4.63;;
2674;SDS011;1347;42.122;24.746;2023-07-28T14:40:58;4.13;;;3.83;;
2674;SDS011;1347;42.122;24.746;2023-07-28T14:43:26;4.93;;;4.43;;
2674;SDS011;1347;42.122;24.746;2023-07-28T14:45:53;4.20;;;3.90;;
2674;SDS011;1347;42.122;24.746;2023-07-28T14:48:20;7.40;;;4.10;;
2674;SDS011;1347;42.122;24.746;2023-07-28T14:50:47;5.03;;;4.57;;
2674;SDS011;1347;42.122;24.746;2023-07-28T14:53:30;4.13;;;3.73;;
2674;SDS011;1347;42.122;24.746;2023-07-28T14:55:58;4.33;;;3.90;;
2674;SDS011;1347;42.122;24.746;2023-07-28T14:58:27;8.20;;;3.90;;
2674;SDS011;1347;42.122;24.746;2023-07-28T15:00:54;4.70;;;4.27;;
2674;SDS011;1347;42.122;24.746;2023-07-28T15:03:21;4.57;;;4.17;;
2674;SDS011;1347;42.122;24.746;2023-07-28T15:05:48;5.07;;;4.67;;
2674;SDS011;1347;42.122;24.746;2023-07-28T15:08:15;4.00;;;3.70;;
2674;SDS011;1347;42.122;24.746;2023-07-28T15:10:42;7.40;;;4.17;;